createdAt,value
2022-08-09T00:00:08.314Z,15.70
2022-08-09T00:02:49.178Z,15.80
2022-08-09T00:06:18.146Z,15.80
2022-08-09T00:08:32.186Z,15.80
2022-08-09T00:11:00.424Z,15.80
2022-08-09T00:13:28.145Z,15.80
2022-08-09T00:16:02.638Z,15.80
2022-08-09T00:18:34.943Z,15.80
2022-08-09T00:21:05.155Z,15.80
2022-08-09T00:23:57.959Z,15.80
2022-08-09T00:26:30.048Z,15.80
2022-08-09T00:29:01.547Z,15.80
2022-08-09T00:31:56.995Z,15.70
2022-08-09T00:34:15.767Z,15.70
2022-08-09T00:36:47.552Z,15.70
2022-08-09T00:40:10.438Z,15.60
2022-08-09T00:44:16.464Z,15.50
2022-08-09T00:44:49.203Z,15.40
2022-08-09T00:47:16.255Z,15.30
2022-08-09T00:49:52.509Z,15.30
2022-08-09T00:52:30.107Z,15.20
2022-08-09T00:55:02.080Z,15.30
2022-08-09T00:57:34.887Z,15.20
2022-08-09T01:00:21.926Z,15.20
2022-08-09T01:02:53.918Z,15.20
2022-08-09T01:05:50.767Z,15.00
2022-08-09T01:08:49.525Z,15.00
2022-08-09T01:11:34.929Z,14.90
2022-08-09T01:14:52.585Z,14.90
2022-08-09T01:17:26.060Z,14.80
2022-08-09T01:20:16.321Z,14.80
2022-08-09T01:23:00.311Z,14.80
2022-08-09T01:25:51.174Z,14.80
2022-08-09T01:28:22.640Z,14.80
2022-08-09T01:30:58.246Z,14.80
2022-08-09T01:33:29.864Z,14.70
2022-08-09T01:36:11.367Z,14.70
2022-08-09T01:38:46.483Z,14.70
2022-08-09T01:41:26.100Z,14.70
2022-08-09T01:43:56.357Z,14.60
2022-08-09T01:46:36.283Z,14.60
2022-08-09T01:49:10.271Z,14.60
2022-08-09T01:51:44.693Z,14.50
2022-08-09T01:54:23.799Z,14.50
2022-08-09T01:56:52.676Z,14.50
2022-08-09T01:59:23.004Z,14.50
2022-08-09T02:01:59.621Z,14.40
2022-08-09T02:04:29.921Z,14.40
2022-08-09T02:07:18.455Z,14.30
2022-08-09T02:10:11.924Z,14.30
2022-08-09T02:12:40.211Z,14.20
2022-08-09T02:15:11.732Z,14.10
2022-08-09T02:18:00.004Z,14.10
2022-08-09T02:20:33.988Z,14.00
2022-08-09T02:23:10.504Z,14.00
2022-08-09T02:25:42.716Z,14.00
2022-08-09T02:28:31.218Z,14.00
2022-08-09T02:31:06.199Z,14.00
2022-08-09T02:34:06.463Z,13.90
2022-08-09T02:36:37.727Z,13.90
2022-08-09T02:39:14.626Z,13.90
2022-08-09T02:42:01.728Z,13.90
2022-08-09T02:44:38.026Z,13.90
2022-08-09T02:47:09.886Z,13.90
2022-08-09T02:49:42.131Z,13.80
2022-08-09T02:52:18.119Z,13.80
2022-08-09T02:54:53.958Z,13.80
2022-08-09T02:57:25.071Z,13.80
2022-08-09T03:00:20.604Z,13.70
2022-08-09T03:02:58.323Z,13.70
2022-08-09T03:05:28.868Z,13.70
2022-08-09T03:07:56.931Z,13.70
2022-08-09T03:10:26.410Z,13.70
2022-08-09T03:12:54.758Z,13.70
2022-08-09T03:15:23.722Z,13.70
2022-08-09T03:17:53.885Z,13.70
2022-08-09T03:20:29.553Z,13.50
2022-08-09T03:23:00.496Z,13.40
2022-08-09T03:25:57.029Z,13.40
2022-08-09T03:28:27.262Z,13.40
2022-08-09T03:30:55.714Z,13.40
2022-08-09T03:33:24.517Z,13.50
2022-08-09T03:36:12.792Z,13.60
2022-08-09T03:38:42.981Z,13.70
2022-08-09T03:41:16.075Z,13.60
2022-08-09T03:44:04.019Z,13.70
2022-08-09T03:46:32.932Z,13.60
2022-08-09T03:49:04.377Z,13.50
2022-08-09T03:51:56.196Z,13.50
2022-08-09T03:54:29.569Z,13.40
2022-08-09T03:56:58.273Z,13.50
2022-08-09T03:59:32.952Z,13.50
2022-08-09T04:02:11.361Z,13.60
2022-08-09T04:04:41.264Z,13.70
2022-08-09T04:07:14.499Z,14.10
2022-08-09T04:09:50.004Z,14.20
2022-08-09T04:12:30.597Z,14.30
2022-08-09T04:15:01.841Z,14.30
2022-08-09T04:17:42.384Z,14.30
2022-08-09T04:20:12.133Z,14.20
2022-08-09T04:22:41.321Z,14.20
2022-08-09T04:25:13.043Z,14.20
2022-08-09T04:27:48.922Z,14.30
2022-08-09T04:30:26.155Z,14.40
2022-08-09T04:32:55.886Z,14.40
2022-08-09T04:35:23.181Z,14.60
2022-08-09T04:37:50.939Z,14.70
2022-08-09T04:40:19.082Z,14.80
2022-08-09T04:42:56.793Z,14.90
2022-08-09T04:45:24.061Z,15.20
2022-08-09T04:48:00.219Z,15.40
2022-08-09T04:50:34.959Z,15.40
2022-08-09T04:53:11.809Z,15.50
2022-08-09T04:55:43.945Z,15.60
2022-08-09T04:58:24.903Z,15.80
2022-08-09T05:00:54.391Z,15.80
2022-08-09T05:03:40.979Z,15.80
2022-08-09T05:06:10.483Z,15.90
2022-08-09T05:08:38.633Z,16.00
2022-08-09T05:11:07.617Z,16.20
2022-08-09T05:13:38.428Z,16.40
2022-08-09T05:16:10.113Z,16.50
2022-08-09T05:18:57.986Z,16.60
2022-08-09T05:21:29.896Z,16.50
2022-08-09T05:24:01.941Z,16.70
2022-08-09T05:26:36.118Z,16.70
2022-08-09T05:29:04.794Z,16.90
2022-08-09T05:31:44.239Z,16.90
2022-08-09T05:34:17.587Z,16.90
2022-08-09T05:36:46.797Z,16.90
2022-08-09T05:39:28.152Z,17.10
2022-08-09T05:41:55.928Z,17.20
2022-08-09T05:44:28.881Z,17.20
2022-08-09T05:46:59.897Z,16.90
2022-08-09T05:50:24.511Z,17.00
2022-08-09T05:52:14.646Z,17.20
2022-08-09T05:54:42.624Z,17.50
2022-08-09T05:57:12.844Z,17.90
2022-08-09T05:59:44.500Z,18.40
2022-08-09T06:02:12.332Z,18.80
2022-08-09T06:04:46.059Z,19.20
2022-08-09T06:07:21.455Z,19.40
2022-08-09T06:10:01.577Z,19.40
2022-08-09T06:12:29.873Z,19.20
2022-08-09T06:15:00.866Z,19.60
2022-08-09T06:17:40.050Z,19.80
2022-08-09T06:20:08.699Z,20.30
2022-08-09T06:22:36.993Z,20.50
2022-08-09T06:25:08.581Z,20.30
2022-08-09T06:27:42.667Z,20.40
2022-08-09T06:30:14.262Z,21.30
2022-08-09T06:33:39.777Z,21.70
2022-08-09T06:35:35.887Z,22.50
2022-08-09T06:38:18.103Z,23.30
2022-08-09T06:40:46.272Z,23.30
2022-08-09T06:43:14.198Z,23.80
2022-08-09T06:46:06.471Z,24.20
2022-08-09T06:48:31.126Z,24.60
2022-08-09T06:51:00.199Z,24.40
2022-08-09T06:53:33.295Z,24.20
2022-08-09T06:56:07.393Z,23.50
2022-08-09T07:00:47.023Z,23.40
2022-08-09T07:01:24.217Z,23.70
2022-08-09T07:03:57.810Z,23.60
2022-08-09T07:06:30.785Z,23.40
2022-08-09T07:08:58.393Z,23.60
2022-08-09T07:11:25.805Z,23.70
2022-08-09T07:14:05.604Z,24.10
2022-08-09T07:16:41.866Z,24.10
2022-08-09T07:19:18.798Z,24.50
2022-08-09T07:21:57.929Z,25.90
2022-08-09T07:24:32.504Z,27.80
2022-08-09T07:27:10.912Z,30.70
2022-08-09T07:29:57.035Z,32.90
2022-08-09T07:32:32.044Z,33.10
2022-08-09T07:34:59.732Z,33.00
2022-08-09T07:37:26.764Z,32.00
2022-08-09T07:39:54.092Z,30.60
2022-08-09T07:42:32.820Z,30.20
2022-08-09T07:45:02.507Z,30.80
2022-08-09T07:48:00.486Z,31.50
2022-08-09T07:50:34.814Z,30.20
2022-08-09T07:53:04.756Z,30.10
2022-08-09T07:55:41.630Z,29.80
2022-08-09T07:58:21.412Z,28.10
2022-08-09T08:00:55.754Z,28.20
2022-08-09T08:03:36.986Z,29.30
2022-08-09T08:06:04.732Z,27.50
2022-08-09T08:09:01.124Z,25.80
2022-08-09T08:12:24.002Z,24.50
2022-08-09T08:14:07.107Z,23.80
2022-08-09T08:16:36.792Z,23.60
2022-08-09T08:19:08.990Z,23.30
2022-08-09T08:21:39.806Z,23.20
2022-08-09T08:24:11.477Z,23.30
2022-08-09T08:26:41.819Z,23.50
2022-08-09T08:29:28.135Z,23.90
2022-08-09T08:32:03.273Z,24.20
2022-08-09T08:34:34.578Z,24.20
2022-08-09T08:37:04.176Z,23.90
2022-08-09T08:39:43.423Z,23.60
2022-08-09T08:42:11.421Z,23.70
2022-08-09T08:44:39.442Z,23.70
2022-08-09T08:47:12.470Z,24.10
2022-08-09T08:49:47.855Z,24.00
2022-08-09T08:55:09.853Z,23.60
2022-08-09T08:57:37.477Z,23.70
2022-08-09T09:00:17.071Z,23.90
2022-08-09T09:03:04.720Z,24.00
2022-08-09T09:05:59.178Z,24.00
2022-08-09T09:08:40.350Z,24.10
2022-08-09T09:11:13.866Z,23.40
2022-08-09T09:13:56.998Z,23.10
2022-08-09T09:16:30.238Z,23.30
2022-08-09T09:19:36.556Z,23.70
2022-08-09T09:21:58.091Z,24.40
2022-08-09T09:24:30.260Z,24.50
2022-08-09T09:27:01.607Z,24.50
2022-08-09T09:30:09.383Z,25.40
2022-08-09T09:32:34.808Z,26.00
2022-08-09T09:35:09.494Z,26.60
2022-08-09T09:37:40.414Z,27.00
2022-08-09T09:40:09.257Z,27.20
2022-08-09T09:42:36.412Z,27.00
2022-08-09T09:45:08.239Z,26.00
2022-08-09T09:47:47.696Z,26.10
2022-08-09T09:50:49.293Z,26.10
2022-08-09T09:53:25.218Z,26.10
2022-08-09T09:56:30.826Z,26.30
2022-08-09T09:58:57.038Z,26.30
2022-08-09T10:01:31.264Z,26.60
2022-08-09T10:04:12.723Z,25.70
2022-08-09T10:06:47.017Z,26.20
2022-08-09T10:09:22.639Z,27.00
2022-08-09T10:12:12.954Z,27.80
2022-08-09T10:14:48.103Z,28.60
2022-08-09T10:17:39.637Z,29.30
2022-08-09T10:20:27.877Z,28.30
2022-08-09T10:23:21.892Z,27.40
2022-08-09T10:26:07.072Z,28.40
2022-08-09T10:28:40.038Z,27.90
2022-08-09T10:32:20.594Z,27.20
2022-08-09T10:34:10.068Z,25.60
2022-08-09T10:36:46.185Z,25.80
2022-08-09T10:39:15.893Z,26.30
2022-08-09T10:41:47.568Z,26.70
2022-08-09T10:44:27.039Z,28.40
2022-08-09T10:48:12.865Z,30.40
2022-08-09T10:50:30.729Z,30.10
2022-08-09T10:53:28.668Z,27.30
2022-08-09T10:56:25.977Z,26.60
2022-08-09T10:58:58.037Z,25.00
2022-08-09T11:03:13.388Z,24.00
2022-08-09T11:04:31.672Z,23.40
2022-08-09T11:07:00.293Z,23.40
2022-08-09T11:09:47.508Z,23.10
2022-08-09T11:12:29.539Z,23.20
2022-08-09T11:15:20.576Z,23.40
2022-08-09T11:18:02.899Z,23.10
2022-08-09T11:20:50.398Z,23.10
2022-08-09T11:23:24.039Z,23.10
2022-08-09T11:25:57.002Z,22.90
2022-08-09T11:28:34.606Z,23.10
2022-08-09T11:31:43.594Z,23.60
2022-08-09T11:34:25.608Z,23.90
2022-08-09T11:36:55.796Z,23.70
2022-08-09T11:39:25.949Z,24.80
2022-08-09T11:42:14.705Z,25.60
2022-08-09T11:44:47.506Z,26.10
2022-08-09T11:47:16.279Z,26.80
2022-08-09T11:50:55.241Z,26.40
2022-08-09T11:53:59.696Z,27.50
2022-08-09T11:56:02.154Z,29.20
2022-08-09T11:58:33.776Z,30.50
2022-08-09T12:01:08.443Z,31.70
2022-08-09T12:03:57.569Z,31.40
2022-08-09T12:06:32.771Z,28.90
2022-08-09T12:09:21.146Z,26.00
2022-08-09T12:12:04.261Z,25.60
2022-08-09T12:14:58.987Z,26.60
2022-08-09T12:17:41.637Z,26.90
2022-08-09T12:20:16.204Z,28.40
2022-08-09T12:22:50.267Z,29.20
2022-08-09T12:25:36.606Z,27.70
2022-08-09T12:29:11.904Z,26.80
2022-08-09T12:31:10.808Z,27.50
2022-08-09T12:33:58.669Z,29.20
2022-08-09T12:36:33.485Z,29.00
2022-08-09T12:39:02.652Z,29.50
2022-08-09T12:41:39.570Z,29.70
2022-08-09T12:44:13.169Z,30.20
2022-08-09T12:46:48.917Z,30.00
2022-08-09T12:49:18.928Z,30.10
2022-08-09T12:52:03.409Z,30.40
2022-08-09T12:56:12.304Z,29.20
2022-08-09T12:57:49.751Z,27.40
2022-08-09T13:00:25.775Z,25.90
2022-08-09T13:03:00.341Z,24.60
2022-08-09T13:06:13.185Z,24.40
2022-08-09T13:08:43.525Z,24.00
2022-08-09T13:11:22.957Z,23.80
2022-08-09T13:14:42.700Z,24.10
2022-08-09T13:16:50.324Z,23.70
2022-08-09T13:20:08.554Z,23.80
2022-08-09T13:22:37.217Z,23.80
2022-08-09T13:25:16.055Z,23.50
2022-08-09T13:27:55.717Z,23.60
2022-08-09T13:31:11.423Z,23.70
2022-08-09T13:33:35.898Z,23.40
2022-08-09T13:36:24.314Z,23.50
2022-08-09T13:39:03.722Z,23.60
2022-08-09T13:41:57.132Z,23.60
2022-08-09T13:44:27.821Z,23.20
2022-08-09T13:47:27.568Z,23.40
2022-08-09T13:49:57.158Z,23.00
2022-08-09T13:52:33.464Z,23.10
2022-08-09T13:55:04.525Z,22.90
2022-08-09T13:57:40.260Z,22.70
2022-08-09T14:00:15.965Z,22.70
2022-08-09T14:03:03.390Z,22.80
2022-08-09T14:05:58.353Z,22.90
2022-08-09T14:08:23.443Z,22.80
2022-08-09T14:10:52.314Z,22.80
2022-08-09T14:14:16.220Z,22.90
2022-08-09T14:16:30.298Z,22.80
2022-08-09T14:19:02.066Z,22.60
2022-08-09T14:21:32.174Z,22.50
2022-08-09T14:24:01.100Z,22.60
2022-08-09T14:26:39.244Z,22.70
2022-08-09T14:29:25.508Z,22.70
2022-08-09T14:31:58.728Z,22.70
2022-08-09T14:34:41.030Z,22.80
2022-08-09T14:37:11.146Z,22.60
2022-08-09T14:39:46.739Z,22.50
2022-08-09T14:42:30.302Z,22.00
2022-08-09T14:46:51.190Z,21.90
2022-08-09T14:47:58.575Z,22.00
2022-08-09T14:50:34.497Z,22.00
2022-08-09T14:53:12.320Z,22.00
2022-08-09T14:55:50.039Z,22.00
2022-08-09T14:58:26.340Z,21.90
2022-08-09T15:01:02.393Z,21.90
2022-08-09T15:03:33.945Z,21.80
2022-08-09T15:06:04.721Z,21.80
2022-08-09T15:08:32.362Z,21.70
2022-08-09T15:11:00.495Z,21.80
2022-08-09T15:13:47.850Z,21.60
2022-08-09T15:16:30.417Z,21.40
2022-08-09T15:19:05.679Z,21.30
2022-08-09T15:21:56.706Z,21.50
2022-08-09T15:24:28.690Z,21.70
2022-08-09T15:26:56.582Z,21.80
2022-08-09T15:30:56.975Z,21.70
2022-08-09T15:32:28.635Z,21.60
2022-08-09T15:35:00.356Z,21.50
2022-08-09T15:37:57.441Z,21.50
2022-08-09T15:40:43.769Z,21.60
2022-08-09T15:43:14.754Z,21.60
2022-08-09T15:45:51.757Z,21.40
2022-08-09T15:48:32.731Z,21.40
2022-08-09T15:51:01.777Z,21.30
2022-08-09T15:54:04.360Z,21.30
2022-08-09T15:56:26.279Z,21.30
2022-08-09T15:58:57.869Z,21.20
2022-08-09T16:01:31.460Z,21.10
2022-08-09T16:04:03.697Z,21.10
2022-08-09T16:06:35.340Z,20.90
2022-08-09T16:09:06.403Z,20.80
2022-08-09T16:11:34.514Z,20.70
2022-08-09T16:14:07.746Z,20.70
2022-08-09T16:16:45.836Z,20.60
2022-08-09T16:19:18.409Z,20.50
2022-08-09T16:21:53.840Z,20.50
2022-08-09T16:24:34.213Z,20.40
2022-08-09T16:27:05.251Z,20.30
2022-08-09T16:29:36.726Z,20.30
2022-08-09T16:32:19.900Z,20.20
2022-08-09T16:34:58.039Z,20.20
2022-08-09T16:37:53.061Z,20.10
2022-08-09T16:40:29.882Z,20.10
2022-08-09T16:43:14.368Z,20.00
2022-08-09T16:45:44.293Z,19.90
2022-08-09T16:48:38.670Z,19.80
2022-08-09T16:51:07.874Z,19.80
2022-08-09T16:54:02.556Z,19.70
2022-08-09T16:56:30.462Z,19.70
2022-08-09T16:59:01.551Z,19.60
2022-08-09T17:01:37.500Z,19.70
2022-08-09T17:04:08.875Z,19.50
2022-08-09T17:08:40.408Z,19.50
2022-08-09T17:09:46.255Z,19.50
2022-08-09T17:12:18.530Z,19.30
2022-08-09T17:14:49.221Z,19.20
2022-08-09T17:17:26.783Z,19.10
2022-08-09T17:20:30.596Z,19.10
2022-08-09T17:22:49.818Z,19.10
2022-08-09T17:25:22.021Z,19.00
2022-08-09T17:27:53.958Z,19.00
2022-08-09T17:30:33.615Z,18.80
2022-08-09T17:33:21.983Z,18.70
2022-08-09T17:35:54.304Z,18.70
2022-08-09T17:38:34.181Z,18.60
2022-08-09T17:41:08.903Z,18.60
2022-08-09T17:43:38.016Z,18.50
2022-08-09T17:46:10.093Z,18.40
2022-08-09T17:48:51.935Z,18.30
2022-08-09T17:51:23.295Z,18.20
2022-08-09T17:53:55.779Z,18.10
2022-08-09T17:56:35.964Z,18.00
2022-08-09T18:04:49.098Z,17.70
2022-08-09T18:07:23.339Z,17.50
2022-08-09T18:10:03.951Z,17.60
2022-08-09T18:18:25.752Z,17.30
2022-08-09T18:21:19.090Z,17.20
2022-08-09T18:24:11.115Z,17.00
2022-08-09T18:26:33.967Z,16.90
2022-08-09T18:30:35.483Z,16.70
2022-08-09T18:31:58.002Z,16.60
2022-08-09T18:34:29.079Z,16.40
2022-08-09T18:37:01.785Z,16.30
2022-08-09T18:39:39.497Z,16.10
2022-08-09T18:42:08.946Z,15.90
2022-08-09T18:47:23.766Z,15.90
2022-08-09T18:49:55.198Z,15.90
2022-08-09T18:55:16.552Z,15.80
2022-08-09T19:00:56.111Z,15.50
2022-08-09T19:04:01.075Z,15.50
2022-08-09T19:06:20.662Z,15.30
2022-08-09T19:08:54.913Z,15.20
2022-08-09T19:11:35.289Z,15.10
2022-08-09T19:14:15.974Z,14.90
2022-08-09T19:16:52.872Z,14.90
2022-08-09T19:19:25.816Z,14.80
2022-08-09T19:22:06.449Z,14.80
2022-08-09T19:25:07.533Z,14.90
2022-08-09T19:27:28.694Z,14.90
2022-08-09T19:30:22.232Z,14.80
2022-08-09T19:32:45.367Z,14.70
2022-08-09T19:35:17.064Z,14.60
2022-08-09T19:38:27.286Z,14.70
2022-08-09T19:40:55.508Z,14.60
2022-08-09T19:44:00.550Z,14.40
2022-08-09T19:46:33.991Z,14.60
2022-08-09T19:50:05.344Z,14.70
2022-08-09T19:51:57.988Z,14.60
2022-08-09T19:54:31.540Z,14.40
2022-08-09T19:57:02.716Z,14.30
2022-08-09T19:59:57.640Z,14.30
2022-08-09T20:04:07.269Z,14.40
2022-08-09T20:05:15.024Z,14.20
2022-08-09T20:07:59.323Z,14.10
2022-08-09T20:10:37.330Z,14.00
2022-08-09T20:13:10.979Z,13.90
2022-08-09T20:16:36.412Z,13.90
2022-08-09T20:18:27.811Z,13.90
2022-08-09T20:20:57.986Z,13.80
2022-08-09T20:23:38.536Z,13.70
2022-08-09T20:26:07.788Z,13.70
2022-08-09T20:28:47.603Z,13.60
2022-08-09T20:31:16.657Z,13.50
2022-08-09T20:33:44.851Z,13.60
2022-08-09T20:36:13.570Z,13.60
2022-08-09T20:39:18.859Z,13.60
2022-08-09T20:41:37.991Z,13.50
2022-08-09T20:44:10.760Z,13.40
2022-08-09T20:46:42.769Z,13.40
2022-08-09T20:49:16.133Z,13.50
2022-08-09T20:51:50.455Z,13.40
2022-08-09T20:54:18.242Z,13.40
2022-08-09T20:56:49.808Z,13.40
2022-08-09T21:00:19.637Z,13.30
2022-08-09T21:02:11.558Z,13.40
2022-08-09T21:05:53.364Z,13.40
2022-08-09T21:07:40.404Z,13.30
2022-08-09T21:10:09.309Z,13.30
2022-08-09T21:15:34.854Z,13.10
2022-08-09T21:18:11.578Z,13.20
2022-08-09T21:20:54.254Z,13.20
2022-08-09T21:23:35.991Z,13.20
2022-08-09T21:26:12.807Z,13.20
2022-08-09T21:28:55.754Z,13.20
2022-08-09T21:31:24.755Z,13.20
2022-08-09T21:34:19.282Z,13.10
2022-08-09T21:36:56.549Z,13.10
2022-08-09T21:39:28.107Z,13.10
2022-08-09T21:42:10.672Z,13.10
2022-08-09T21:44:42.783Z,13.00
2022-08-09T21:47:17.354Z,12.90
2022-08-09T21:49:45.522Z,12.90
2022-08-09T21:52:18.505Z,12.80
2022-08-09T21:55:03.246Z,12.70
2022-08-09T21:57:38.997Z,12.60
2022-08-09T22:00:32.910Z,12.60
2022-08-09T22:03:06.122Z,12.60
2022-08-09T22:05:36.603Z,12.50
2022-08-09T22:08:13.022Z,12.60
2022-08-09T22:11:50.229Z,12.60
2022-08-09T22:13:34.504Z,12.50
2022-08-09T22:16:04.604Z,12.50
2022-08-09T22:18:52.180Z,12.40
2022-08-09T22:21:24.101Z,12.40
2022-08-09T22:24:01.586Z,12.30
2022-08-09T22:26:34.030Z,12.30
2022-08-09T22:29:07.516Z,12.20
2022-08-09T22:31:37.064Z,12.10
2022-08-09T22:34:09.760Z,12.10
2022-08-09T22:36:45.558Z,12.00
2022-08-09T22:39:46.792Z,11.90
2022-08-09T22:42:03.965Z,11.90
2022-08-09T22:44:33.646Z,11.90
2022-08-09T22:48:13.132Z,11.80
2022-08-09T22:49:52.132Z,11.90
2022-08-09T22:52:22.223Z,11.90
2022-08-09T22:54:52.068Z,11.80
2022-08-09T22:57:20.317Z,11.80
2022-08-09T22:59:56.987Z,11.70
2022-08-09T23:02:27.428Z,11.70
2022-08-09T23:04:56.909Z,11.70
2022-08-09T23:08:22.287Z,11.70
2022-08-09T23:10:34.113Z,11.60
2022-08-09T23:13:01.566Z,11.50
2022-08-09T23:15:30.113Z,11.50
2022-08-09T23:17:57.538Z,11.50
2022-08-09T23:20:26.374Z,11.60
2022-08-09T23:22:53.666Z,11.50
2022-08-09T23:25:20.805Z,11.50
2022-08-09T23:27:57.353Z,11.40
2022-08-09T23:30:39.612Z,11.40
2022-08-09T23:33:18.271Z,11.40
2022-08-09T23:36:05.722Z,11.40
2022-08-09T23:38:48.438Z,11.40
2022-08-09T23:41:29.006Z,11.40
2022-08-09T23:43:58.169Z,11.40
2022-08-09T23:46:28.638Z,11.40
2022-08-09T23:48:57.876Z,11.40
2022-08-09T23:51:25.246Z,11.40
2022-08-09T23:53:55.128Z,11.40
2022-08-09T23:56:53.082Z,11.40
2022-08-09T23:59:13.093Z,11.30
